Time;durP1;ratioP1;P1;durP2;ratioP2;P2;SDS_P1;SDS_P2;PMS_P1;PMS_P2;Temp;Humidity;BMP_temperature;BMP_pressure;BME280_temperature;BME280_humidity;BME280_pressure;Samples;Min_cycle;Max_cycle;Signal;HPM_P1;HPM_P2
2022/08/09 00:00:27;;;;;;;1.90;1.57;;;;;;;;;;4997131;28;20432;-75
2022/08/09 00:02:53;;;;;;;1.90;1.70;;;;;;;;;;5002677;28;20437;-75
2022/08/09 00:05:21;;;;;;;3.67;1.97;;;;;;;;;;4982789;28;20447;-75
2022/08/09 00:07:47;;;;;;;2.57;2.10;;;;;;;;;;5002911;28;20826;-75
2022/08/09 00:10:14;;;;;;;2.07;1.80;;;;;;;;;;4997367;28;20448;-75
2022/08/09 00:12:40;;;;;;;2.10;1.90;;;;;;;;;;4989471;28;20472;-75
2022/08/09 00:15:06;;;;;;;2.00;1.60;;;;;;;;;;4996090;28;20506;-76
2022/08/09 00:17:32;;;;;;;2.07;1.60;;;;;;;;;;4987059;28;20424;-77
2022/08/09 00:19:58;;;;;;;6.13;1.53;;;;;;;;;;4962496;28;20449;-76
2022/08/09 00:22:24;;;;;;;2.37;1.90;;;;;;;;;;4976517;28;20469;-76
2022/08/09 00:24:50;;;;;;;1.80;1.57;;;;;;;;;;4982673;28;20467;-77
2022/08/09 00:27:16;;;;;;;6.23;1.70;;;;;;;;;;4999952;28;20441;-76
2022/08/09 00:29:43;;;;;;;1.90;1.67;;;;;;;;;;4979890;28;20483;-77
2022/08/09 00:32:09;;;;;;;5.63;1.90;;;;;;;;;;4979999;28;20451;-76
2022/08/09 00:34:35;;;;;;;3.10;2.50;;;;;;;;;;4979266;28;20537;-77
2022/08/09 00:37:01;;;;;;;3.67;1.80;;;;;;;;;;4998675;28;20421;-76
2022/08/09 00:39:27;;;;;;;2.80;1.80;;;;;;;;;;4953403;28;22096;-75
2022/08/09 00:41:53;;;;;;;2.67;1.87;;;;;;;;;;4998212;28;20432;-75
2022/08/09 00:44:22;;;;;;;6.10;1.70;;;;;;;;;;4985701;28;20458;-75
2022/08/09 00:46:48;;;;;;;1.70;1.50;;;;;;;;;;4951740;28;20539;-75
2022/08/09 00:49:14;;;;;;;1.70;1.60;;;;;;;;;;4997893;28;20526;-75
2022/08/09 00:51:40;;;;;;;2.33;1.60;;;;;;;;;;4959217;28;20475;-76
2022/08/09 00:54:06;;;;;;;3.93;1.73;;;;;;;;;;4998163;28;20467;-75
2022/08/09 00:56:32;;;;;;;1.70;1.60;;;;;;;;;;4963886;28;20196;-78
2022/08/09 00:58:58;;;;;;;2.27;1.70;;;;;;;;;;4999113;28;20269;-74
2022/08/09 01:01:27;;;;;;;3.40;1.90;;;;;;;;;;4977863;28;20494;-76
2022/08/09 01:03:53;;;;;;;1.70;1.60;;;;;;;;;;4998138;28;20443;-76
2022/08/09 01:06:38;;;;;;;3.50;1.63;;;;;;;;;;4992141;28;20436;-75
2022/08/09 01:09:03;;;;;;;2.03;1.70;;;;;;;;;;4996955;28;20519;-76
2022/08/09 01:11:42;;;;;;;6.20;2.13;;;;;;;;;;4953213;28;20970;-76
2022/08/09 01:14:34;;;;;;;3.30;2.23;;;;;;;;;;5004516;28;20469;-76
2022/08/09 01:17:08;;;;;;;3.87;2.27;;;;;;;;;;4965124;28;20440;-75
2022/08/09 01:19:38;;;;;;;2.80;2.47;;;;;;;;;;4970972;28;20455;-73
2022/08/09 01:22:18;;;;;;;1.77;1.60;;;;;;;;;;4976432;28;20525;-76
2022/08/09 01:24:57;;;;;;;2.23;2.00;;;;;;;;;;4949876;28;20443;-76
2022/08/09 01:27:23;;;;;;;3.13;1.97;;;;;;;;;;4963445;28;20538;-76
2022/08/09 01:30:07;;;;;;;5.13;2.17;;;;;;;;;;4983567;28;20432;-74
2022/08/09 01:32:34;;;;;;;2.30;2.00;;;;;;;;;;4945468;28;20428;-77
2022/08/09 01:35:01;;;;;;;4.70;1.93;;;;;;;;;;4982766;28;20448;-76
2022/08/09 01:37:27;;;;;;;3.00;1.73;;;;;;;;;;4999453;28;20524;-75
2022/08/09 01:39:53;;;;;;;2.43;1.40;;;;;;;;;;5000209;28;20514;-75
2022/08/09 01:42:19;;;;;;;1.70;1.60;;;;;;;;;;4972439;28;21730;-75
2022/08/09 01:44:47;;;;;;;3.63;1.80;;;;;;;;;;4998930;28;20439;-76
2022/08/09 01:47:16;;;;;;;2.40;1.50;;;;;;;;;;4969901;28;20852;-76
2022/08/09 01:49:42;;;;;;;2.23;1.80;;;;;;;;;;5002109;28;20444;-75
2022/08/09 01:52:10;;;;;;;2.40;2.13;;;;;;;;;;5003906;28;20433;-74
2022/08/09 01:54:37;;;;;;;3.37;2.40;;;;;;;;;;4981201;28;20492;-74
2022/08/09 01:57:07;;;;;;;2.80;2.23;;;;;;;;;;4989325;28;20443;-76
2022/08/09 01:59:33;;;;;;;2.77;2.33;;;;;;;;;;4981750;28;21161;-74
2022/08/09 02:02:02;;;;;;;2.70;1.97;;;;;;;;;;4974945;28;20432;-77
2022/08/09 02:04:29;;;;;;;2.87;2.03;;;;;;;;;;4969862;28;20472;-76
2022/08/09 02:07:08;;;;;;;1.60;1.43;;;;;;;;;;5003951;28;20927;-76
2022/08/09 02:09:35;;;;;;;2.20;1.90;;;;;;;;;;4988843;28;20453;-75
2022/08/09 02:12:02;;;;;;;3.60;2.00;;;;;;;;;;5006110;28;20431;-75
2022/08/09 02:14:28;;;;;;;2.10;1.80;;;;;;;;;;4958426;28;20546;-75
2022/08/09 02:16:54;;;;;;;4.83;2.10;;;;;;;;;;4987521;28;20435;-75
2022/08/09 02:19:20;;;;;;;4.13;2.10;;;;;;;;;;4975715;28;20509;-75
2022/08/09 02:21:47;;;;;;;2.47;1.43;;;;;;;;;;4987501;28;23827;-75
2022/08/09 02:24:14;;;;;;;1.93;1.80;;;;;;;;;;4960088;28;20467;-75
2022/08/09 02:26:40;;;;;;;1.67;1.57;;;;;;;;;;5007990;28;20488;-75
2022/08/09 02:29:08;;;;;;;2.00;1.80;;;;;;;;;;4973445;28;20486;-76
2022/08/09 02:31:35;;;;;;;2.37;2.07;;;;;;;;;;4992873;28;20451;-75
2022/08/09 02:34:33;;;;;;;1.77;1.67;;;;;;;;;;4981277;28;20959;-76
2022/08/09 02:37:01;;;;;;;3.90;2.10;;;;;;;;;;4972178;28;20444;-75
2022/08/09 02:39:32;;;;;;;2.03;1.83;;;;;;;;;;4989684;28;20440;-75
2022/08/09 02:42:02;;;;;;;3.90;2.40;;;;;;;;;;5003987;28;22383;-76
2022/08/09 02:44:31;;;;;;;2.20;2.00;;;;;;;;;;4987610;28;20439;-75
2022/08/09 02:46:58;;;;;;;1.83;1.60;;;;;;;;;;4969082;28;20441;-76
2022/08/09 02:49:25;;;;;;;3.20;1.80;;;;;;;;;;4952784;28;20459;-75
2022/08/09 02:51:51;;;;;;;6.83;2.17;;;;;;;;;;5005899;28;20460;-75
2022/08/09 02:54:17;;;;;;;2.67;2.20;;;;;;;;;;4999761;28;20486;-75
2022/08/09 02:56:47;;;;;;;3.00;2.10;;;;;;;;;;4986968;28;20521;-76
2022/08/09 02:59:14;;;;;;;2.07;1.87;;;;;;;;;;4976670;28;20429;-76
2022/08/09 03:01:40;;;;;;;2.87;1.97;;;;;;;;;;4975230;28;20978;-75
2022/08/09 03:04:06;;;;;;;2.33;2.10;;;;;;;;;;4964492;28;20531;-76
2022/08/09 03:06:32;;;;;;;2.47;2.00;;;;;;;;;;4987121;28;20440;-74
2022/08/09 03:08:58;;;;;;;2.53;2.33;;;;;;;;;;4970487;28;20515;-75
2022/08/09 03:11:24;;;;;;;3.00;2.17;;;;;;;;;;4996490;28;20538;-75
2022/08/09 03:13:50;;;;;;;5.07;2.60;;;;;;;;;;4971984;28;20479;-75
2022/08/09 03:16:19;;;;;;;1.97;1.77;;;;;;;;;;5000398;28;20446;-75
2022/08/09 03:18:46;;;;;;;5.47;1.90;;;;;;;;;;4969711;28;20495;-75
2022/08/09 03:21:15;;;;;;;2.20;2.00;;;;;;;;;;4960290;28;20562;-75
2022/08/09 03:23:45;;;;;;;3.13;2.03;;;;;;;;;;4963830;28;20456;-74
2022/08/09 03:26:11;;;;;;;1.90;1.60;;;;;;;;;;4986550;28;22529;-75
2022/08/09 03:28:37;;;;;;;2.90;2.27;;;;;;;;;;4991620;28;20424;-75
2022/08/09 03:31:03;;;;;;;2.87;2.00;;;;;;;;;;4969301;28;21517;-74
2022/08/09 03:33:29;;;;;;;2.37;1.93;;;;;;;;;;4981619;28;20612;-75
2022/08/09 03:35:56;;;;;;;2.20;2.10;;;;;;;;;;4980002;28;20804;-75
2022/08/09 03:38:22;;;;;;;3.10;2.47;;;;;;;;;;4973889;28;20479;-76
2022/08/09 03:40:51;;;;;;;1.97;1.77;;;;;;;;;;4985147;28;20439;-75
2022/08/09 03:43:17;;;;;;;2.43;1.77;;;;;;;;;;5000985;28;20475;-75
2022/08/09 03:45:42;;;;;;;3.53;2.50;;;;;;;;;;5001674;28;20523;-76
2022/08/09 03:51:09;;;;;;;2.00;1.80;;;;;;;;;;4962702;28;20440;-74
2022/08/09 03:53:37;;;;;;;2.53;1.97;;;;;;;;;;4987404;28;20522;-75
2022/08/09 03:56:05;;;;;;;4.90;2.27;;;;;;;;;;4966173;28;21578;-74
2022/08/09 03:58:32;;;;;;;2.67;2.00;;;;;;;;;;4981459;28;20451;-74
2022/08/09 04:00:58;;;;;;;2.60;2.40;;;;;;;;;;4992068;28;20448;-74
2022/08/09 04:03:25;;;;;;;3.23;2.10;;;;;;;;;;4999280;28;20475;-74
2022/08/09 04:06:06;;;;;;;3.10;2.33;;;;;;;;;;4984896;28;21425;-74
2022/08/09 04:08:32;;;;;;;2.93;2.33;;;;;;;;;;4978583;28;20440;-74
2022/08/09 04:11:27;;;;;;;;;;;;;;;;;;;;;
2022/08/09 04:13:53;;;;;;;8.43;2.77;;;;;;;;;;4982272;28;20472;-75
2022/08/09 04:16:19;;;;;;;3.63;2.93;;;;;;;;;;4977968;28;20819;-75
2022/08/09 04:18:45;;;;;;;6.27;2.67;;;;;;;;;;5000257;28;20523;-75
2022/08/09 04:21:15;;;;;;;4.13;2.57;;;;;;;;;;4970744;28;20436;-76
2022/08/09 04:23:41;;;;;;;3.63;2.40;;;;;;;;;;4977470;28;20455;-75
2022/08/09 04:26:07;;;;;;;3.63;2.00;;;;;;;;;;4993892;28;21361;-75
2022/08/09 04:28:35;;;;;;;3.40;2.27;;;;;;;;;;4999429;28;20953;-75
2022/08/09 04:31:15;;;;;;;2.90;2.43;;;;;;;;;;4978600;28;21368;-75
2022/08/09 04:33:41;;;;;;;3.03;2.47;;;;;;;;;;4985418;28;20487;-74
2022/08/09 04:36:07;;;;;;;2.87;2.60;;;;;;;;;;4968197;28;21400;-74
2022/08/09 04:38:33;;;;;;;7.50;2.60;;;;;;;;;;4984058;28;20512;-75
2022/08/09 04:40:59;;;;;;;2.30;2.07;;;;;;;;;;4997790;28;20417;-75
2022/08/09 04:43:25;;;;;;;6.20;2.60;;;;;;;;;;5001706;28;20494;-75
2022/08/09 04:45:52;;;;;;;2.57;2.33;;;;;;;;;;4977655;28;20456;-75
2022/08/09 04:48:18;;;;;;;3.50;2.20;;;;;;;;;;4998267;28;20472;-74
2022/08/09 04:50:45;;;;;;;4.07;2.70;;;;;;;;;;4981650;28;20474;-75
2022/08/09 04:53:11;;;;;;;2.57;2.37;;;;;;;;;;4982939;28;20472;-74
2022/08/09 04:55:43;;;;;;;2.20;2.00;;;;;;;;;;4987409;28;20466;-76
2022/08/09 04:58:11;;;;;;;3.40;2.80;;;;;;;;;;4952964;28;20448;-74
2022/08/09 05:00:37;;;;;;;3.10;2.37;;;;;;;;;;4991786;28;20445;-75
2022/08/09 05:03:04;;;;;;;3.80;2.57;;;;;;;;;;4973630;28;20486;-73
2022/08/09 05:05:30;;;;;;;5.20;2.63;;;;;;;;;;4959945;28;20633;-75
2022/08/09 05:07:56;;;;;;;2.97;2.77;;;;;;;;;;4981404;28;20513;-75
2022/08/09 05:10:30;;;;;;;2.90;2.50;;;;;;;;;;4964883;28;20445;-74
2022/08/09 05:12:56;;;;;;;2.97;2.73;;;;;;;;;;4986098;28;20777;-74
2022/08/09 05:15:27;;;;;;;2.97;2.67;;;;;;;;;;4979634;28;20763;-75
2022/08/09 05:17:59;;;;;;;3.53;2.40;;;;;;;;;;4980446;28;20444;-74
2022/08/09 05:20:26;;;;;;;4.83;2.60;;;;;;;;;;4976539;28;21510;-74
2022/08/09 05:22:52;;;;;;;2.97;2.67;;;;;;;;;;4990921;28;20531;-75
2022/08/09 05:25:22;;;;;;;3.40;3.10;;;;;;;;;;4971763;28;20563;-74
2022/08/09 05:27:49;;;;;;;2.80;2.50;;;;;;;;;;4945478;28;20811;-76
2022/08/09 05:30:16;;;;;;;5.57;2.20;;;;;;;;;;4971568;28;20459;-75
2022/08/09 05:32:42;;;;;;;5.83;3.27;;;;;;;;;;4987999;28;20439;-75
2022/08/09 05:35:11;;;;;;;3.80;3.27;;;;;;;;;;4984256;28;20796;-75
2022/08/09 05:37:38;;;;;;;5.90;2.53;;;;;;;;;;4972827;28;20968;-75
2022/08/09 05:40:11;;;;;;;3.50;3.00;;;;;;;;;;4997623;28;21195;-75
2022/08/09 05:42:37;;;;;;;2.40;2.10;;;;;;;;;;4972855;28;20437;-75
2022/08/09 05:45:04;;;;;;;4.63;2.40;;;;;;;;;;4991581;28;20439;-74
2022/08/09 05:47:30;;;;;;;3.03;2.60;;;;;;;;;;4972993;28;20436;-75
2022/08/09 05:49:56;;;;;;;2.70;2.50;;;;;;;;;;4983261;28;20802;-74
2022/08/09 05:52:25;;;;;;;2.90;2.37;;;;;;;;;;4975057;28;20448;-75
2022/08/09 05:54:51;;;;;;;2.63;2.43;;;;;;;;;;5002838;28;20510;-75
2022/08/09 05:57:17;;;;;;;2.43;2.13;;;;;;;;;;4965076;28;20448;-74
2022/08/09 05:59:43;;;;;;;3.60;2.20;;;;;;;;;;4993012;28;20459;-74
2022/08/09 06:02:09;;;;;;;4.50;3.53;;;;;;;;;;4948317;28;20439;-74
2022/08/09 06:04:39;;;;;;;3.70;2.57;;;;;;;;;;4991500;28;20467;-73
2022/08/09 06:07:05;;;;;;;2.47;2.27;;;;;;;;;;4983405;28;20444;-74
2022/08/09 06:09:31;;;;;;;2.57;2.37;;;;;;;;;;5008589;28;20447;-74
2022/08/09 06:12:01;;;;;;;2.83;2.57;;;;;;;;;;4986287;28;20448;-75
2022/08/09 06:14:27;;;;;;;4.07;3.30;;;;;;;;;;4972455;28;20535;-74
2022/08/09 06:16:56;;;;;;;5.17;2.67;;;;;;;;;;4964751;28;20949;-75
2022/08/09 06:19:22;;;;;;;4.03;2.40;;;;;;;;;;5007501;28;21002;-74
2022/08/09 06:21:51;;;;;;;3.50;2.70;;;;;;;;;;4984254;28;20452;-74
2022/08/09 06:24:18;;;;;;;2.60;2.40;;;;;;;;;;4989790;28;20452;-74
2022/08/09 06:26:47;;;;;;;2.80;2.47;;;;;;;;;;4960180;28;20440;-76
2022/08/09 06:29:13;;;;;;;3.60;2.30;;;;;;;;;;5008843;28;21210;-76
2022/08/09 06:31:50;;;;;;;6.57;2.60;;;;;;;;;;4978790;28;20593;-76
2022/08/09 06:34:16;;;;;;;3.70;2.43;;;;;;;;;;4996677;28;20487;-74
2022/08/09 06:39:51;;;;;;;5.07;3.10;;;;;;;;;;4997033;28;21344;-74
2022/08/09 06:42:26;;;;;;;3.67;2.77;;;;;;;;;;4983680;28;20730;-74
2022/08/09 06:50:31;;;;;;;3.67;3.37;;;;;;;;;;4985499;28;20439;-74
2022/08/09 06:53:04;;;;;;;5.40;3.33;;;;;;;;;;4969834;28;21006;-75
2022/08/09 06:55:31;;;;;;;8.20;4.23;;;;;;;;;;5004339;28;20454;-74
2022/08/09 06:57:58;;;;;;;5.00;3.53;;;;;;;;;;4978687;28;21160;-74
2022/08/09 07:00:24;;;;;;;3.80;3.50;;;;;;;;;;4999232;28;21000;-73
2022/08/09 07:02:50;;;;;;;3.73;3.43;;;;;;;;;;4982289;28;20836;-74
2022/08/09 07:08:02;;;;;;;4.60;4.20;;;;;;;;;;5001552;28;20462;-74
2022/08/09 07:10:32;;;;;;;6.43;4.73;;;;;;;;;;4972708;28;20452;-75
2022/08/09 07:12:58;;;;;;;6.53;4.73;;;;;;;;;;5001914;28;20460;-74
2022/08/09 07:15:43;;;;;;;5.30;4.80;;;;;;;;;;4972191;28;20992;-74
2022/08/09 07:18:21;;;;;;;6.23;5.10;;;;;;;;;;4994328;28;20483;-73
2022/08/09 07:20:49;;;;;;;5.33;4.80;;;;;;;;;;4986016;28;20444;-73
2022/08/09 07:23:16;;;;;;;4.77;3.73;;;;;;;;;;5006094;28;20439;-73
2022/08/09 07:25:57;;;;;;;4.23;3.83;;;;;;;;;;4984955;28;20568;-73
2022/08/09 07:28:25;;;;;;;4.67;4.27;;;;;;;;;;4984385;28;20510;-76
2022/08/09 07:30:52;;;;;;;5.20;4.03;;;;;;;;;;4965339;28;20522;-75
2022/08/09 07:33:40;;;;;;;5.00;4.50;;;;;;;;;;4985807;28;20483;-74
2022/08/09 07:36:06;;;;;;;7.33;4.63;;;;;;;;;;4972047;28;20463;-73
2022/08/09 07:38:33;;;;;;;7.57;4.77;;;;;;;;;;5000221;28;20486;-73
2022/08/09 07:41:01;;;;;;;4.87;4.43;;;;;;;;;;4946709;28;20444;-74
2022/08/09 07:43:33;;;;;;;4.20;3.77;;;;;;;;;;4986725;28;20807;-74
2022/08/09 07:45:59;;;;;;;5.40;3.80;;;;;;;;;;4985068;28;20455;-72
2022/08/09 07:48:25;;;;;;;4.80;4.40;;;;;;;;;;4987524;28;20467;-74
2022/08/09 07:50:55;;;;;;;4.60;4.20;;;;;;;;;;4964711;28;20448;-73
2022/08/09 07:53:21;;;;;;;5.17;4.53;;;;;;;;;;4967223;28;20562;-75
2022/08/09 07:55:48;;;;;;;4.97;4.57;;;;;;;;;;4965025;28;20787;-74
2022/08/09 07:58:14;;;;;;;5.53;5.03;;;;;;;;;;4973182;28;20459;-73
2022/08/09 08:00:46;;;;;;;7.47;4.70;;;;;;;;;;4968311;28;20464;-74
2022/08/09 08:03:19;;;;;;;5.20;4.17;;;;;;;;;;4994571;28;20493;-74
2022/08/09 08:06:00;;;;;;;4.97;4.57;;;;;;;;;;4981943;28;20850;-74
2022/08/09 08:08:26;;;;;;;5.57;4.93;;;;;;;;;;4998090;28;20443;-74
2022/08/09 08:10:53;;;;;;;4.83;4.43;;;;;;;;;;4958660;28;20447;-73
2022/08/09 08:13:20;;;;;;;8.70;4.50;;;;;;;;;;4979403;28;21163;-75
2022/08/09 08:18:58;;;;;;;6.37;4.50;;;;;;;;;;4999190;28;20458;-75
2022/08/09 08:21:25;;;;;;;6.23;4.50;;;;;;;;;;4978328;28;20472;-75
2022/08/09 08:26:47;;;;;;;8.17;4.60;;;;;;;;;;4971241;28;20484;-74
2022/08/09 08:29:13;;;;;;;6.10;4.00;;;;;;;;;;5000240;28;20827;-73
2022/08/09 08:31:39;;;;;;;4.33;3.93;;;;;;;;;;4984368;28;20452;-73
2022/08/09 08:34:11;;;;;;;4.27;3.87;;;;;;;;;;4996346;28;20489;-74
2022/08/09 08:36:40;;;;;;;4.50;4.10;;;;;;;;;;4959312;28;20460;-74
2022/08/09 08:39:56;;;;;;;;;;;;;;;;;;;;;
2022/08/09 08:42:22;;;;;;;4.97;4.57;;;;;;;;;;4996340;28;20447;-73
2022/08/09 08:45:03;;;;;;;;;;;;;;;;;;;;;
2022/08/09 08:47:32;;;;;;;7.00;4.30;;;;;;;;;;4983221;28;20444;-73
2022/08/09 08:50:34;;;;;;;4.57;4.17;;;;;;;;;;4964106;28;20475;-74
2022/08/09 08:53:01;;;;;;;4.47;3.73;;;;;;;;;;4965832;28;20779;-74
2022/08/09 08:55:54;;;;;;;4.43;4.03;;;;;;;;;;4994460;28;20479;-74
2022/08/09 08:58:20;;;;;;;7.20;4.37;;;;;;;;;;5004865;28;20428;-74
2022/08/09 09:00:49;;;;;;;4.50;3.90;;;;;;;;;;4985945;28;20440;-74
2022/08/09 09:03:16;;;;;;;4.87;4.37;;;;;;;;;;5003571;28;20901;-75
2022/08/09 09:05:51;;;;;;;3.87;3.57;;;;;;;;;;4974362;28;20424;-74
2022/08/09 09:08:17;;;;;;;4.37;3.97;;;;;;;;;;4997011;28;20752;-74
2022/08/09 09:10:44;;;;;;;3.93;3.63;;;;;;;;;;4979039;28;20947;-74
2022/08/09 09:13:10;;;;;;;5.30;4.10;;;;;;;;;;4993778;28;20809;-72
2022/08/09 09:15:40;;;;;;;4.30;3.90;;;;;;;;;;4976234;28;20424;-74
2022/08/09 09:18:06;;;;;;;4.20;3.63;;;;;;;;;;4987983;28;20451;-74
2022/08/09 09:21:06;;;;;;;4.10;3.47;;;;;;;;;;4980180;28;20716;-75
2022/08/09 09:23:42;;;;;;;4.73;3.37;;;;;;;;;;4979703;28;20435;-73
2022/08/09 09:26:29;;;;;;;3.53;3.20;;;;;;;;;;4977631;28;20459;-76
2022/08/09 09:28:55;;;;;;;3.30;3.00;;;;;;;;;;4955228;28;20450;-73
2022/08/09 09:31:23;;;;;;;4.60;4.00;;;;;;;;;;4985289;28;20437;-73
2022/08/09 09:33:51;;;;;;;4.80;3.73;;;;;;;;;;4964846;28;20773;-74
2022/08/09 09:36:17;;;;;;;4.00;3.70;;;;;;;;;;4986865;28;20471;-74
2022/08/09 09:38:56;;;;;;;5.10;3.40;;;;;;;;;;4992568;28;20479;-75
2022/08/09 09:41:50;;;;;;;4.10;3.40;;;;;;;;;;4986876;28;21035;-75
2022/08/09 09:44:36;;;;;;;3.77;3.33;;;;;;;;;;4980756;28;21082;-75
2022/08/09 09:47:09;;;;;;;6.60;4.60;;;;;;;;;;5004214;28;20430;-76
2022/08/09 09:49:35;;;;;;;3.47;3.17;;;;;;;;;;4986582;28;20452;-75
2022/08/09 09:52:04;;;;;;;3.33;3.03;;;;;;;;;;5001756;28;20440;-73
2022/08/09 09:54:34;;;;;;;2.93;2.73;;;;;;;;;;4961155;28;20471;-72
2022/08/09 09:57:10;;;;;;;4.90;3.20;;;;;;;;;;4990423;28;20435;-75
2022/08/09 09:59:36;;;;;;;3.67;2.97;;;;;;;;;;4967285;28;21192;-74
2022/08/09 10:02:02;;;;;;;4.93;3.53;;;;;;;;;;4984956;28;20498;-76
2022/08/09 10:04:28;;;;;;;4.73;3.70;;;;;;;;;;4993456;28;20245;-74
2022/08/09 10:06:54;;;;;;;5.10;3.03;;;;;;;;;;4968896;28;20535;-74
2022/08/09 10:09:20;;;;;;;3.37;3.07;;;;;;;;;;5007527;28;20436;-74
2022/08/09 10:11:46;;;;;;;3.67;2.60;;;;;;;;;;4996532;28;20261;-74
2022/08/09 10:14:22;;;;;;;3.43;2.80;;;;;;;;;;4991721;28;20733;-74
2022/08/09 10:16:49;;;;;;;3.33;3.00;;;;;;;;;;4960273;28;20447;-73
2022/08/09 10:19:15;;;;;;;4.40;3.00;;;;;;;;;;4969598;28;20440;-74
2022/08/09 10:21:45;;;;;;;4.70;3.20;;;;;;;;;;4980001;28;20497;-73
2022/08/09 10:24:11;;;;;;;3.60;3.30;;;;;;;;;;5000445;28;20491;-73
2022/08/09 10:26:39;;;;;;;4.70;3.87;;;;;;;;;;4969846;28;20579;-72
2022/08/09 10:29:05;;;;;;;3.77;3.47;;;;;;;;;;4994806;28;20989;-73
2022/08/09 10:31:31;;;;;;;4.20;3.00;;;;;;;;;;4986880;28;20446;-73
2022/08/09 10:33:57;;;;;;;3.37;3.07;;;;;;;;;;4975216;28;20490;-73
2022/08/09 10:36:23;;;;;;;6.70;4.50;;;;;;;;;;4998232;28;20440;-74
2022/08/09 10:38:50;;;;;;;3.57;3.30;;;;;;;;;;4988864;28;20444;-74
2022/08/09 10:41:17;;;;;;;3.00;2.80;;;;;;;;;;4978662;28;20448;-74
2022/08/09 10:43:44;;;;;;;4.20;3.00;;;;;;;;;;4958269;28;20472;-74
2022/08/09 10:46:29;;;;;;;5.40;2.73;;;;;;;;;;5001017;28;20424;-75
2022/08/09 10:49:03;;;;;;;4.03;3.13;;;;;;;;;;4979646;28;20439;-74
2022/08/09 10:51:42;;;;;;;3.60;2.97;;;;;;;;;;4993630;28;21068;-74
2022/08/09 10:54:12;;;;;;;3.60;2.90;;;;;;;;;;4976864;28;20479;-73
2022/08/09 10:56:40;;;;;;;2.80;2.60;;;;;;;;;;5008592;28;20438;-74
2022/08/09 10:59:25;;;;;;;3.63;3.33;;;;;;;;;;4957920;28;20447;-74
2022/08/09 11:01:57;;;;;;;2.60;2.40;;;;;;;;;;5008607;28;20425;-75
2022/08/09 11:04:29;;;;;;;3.03;2.73;;;;;;;;;;4992147;28;20432;-74
2022/08/09 11:06:59;;;;;;;6.17;2.90;;;;;;;;;;4990284;28;20443;-74
2022/08/09 11:09:38;;;;;;;2.73;2.40;;;;;;;;;;4989520;28;20830;-74
2022/08/09 11:12:10;;;;;;;3.10;2.80;;;;;;;;;;4991178;28;20485;-74
2022/08/09 11:14:37;;;;;;;2.60;2.40;;;;;;;;;;4967100;28;20468;-74
2022/08/09 11:17:15;;;;;;;3.77;2.40;;;;;;;;;;4978616;28;20474;-74
2022/08/09 11:20:03;;;;;;;3.20;2.90;;;;;;;;;;4988167;28;20427;-74
2022/08/09 11:22:41;;;;;;;4.20;3.10;;;;;;;;;;4974278;28;20985;-75
2022/08/09 11:25:11;;;;;;;4.70;2.63;;;;;;;;;;5007570;28;20479;-75
2022/08/09 11:27:44;;;;;;;4.37;2.80;;;;;;;;;;4974593;28;20448;-73
2022/08/09 11:30:11;;;;;;;3.93;3.20;;;;;;;;;;4984588;28;20440;-74
2022/08/09 11:32:49;;;;;;;3.00;1.97;;;;;;;;;;4970596;28;20437;-73
2022/08/09 11:35:25;;;;;;;3.00;2.60;;;;;;;;;;4987239;28;20951;-72
2022/08/09 11:37:51;;;;;;;5.93;2.60;;;;;;;;;;4982123;28;20448;-73
2022/08/09 11:40:18;;;;;;;2.63;2.33;;;;;;;;;;5004876;28;20520;-74
2022/08/09 11:42:45;;;;;;;2.97;2.07;;;;;;;;;;4999359;28;20454;-73
2022/08/09 11:45:20;;;;;;;2.13;1.80;;;;;;;;;;4984774;28;20435;-73
2022/08/09 11:47:47;;;;;;;2.47;2.10;;;;;;;;;;4976845;28;20456;-75
2022/08/09 11:50:15;;;;;;;3.03;2.50;;;;;;;;;;4987700;28;20445;-74
2022/08/09 11:52:59;;;;;;;2.40;2.20;;;;;;;;;;4971736;28;20452;-73
2022/08/09 11:55:30;;;;;;;2.50;2.30;;;;;;;;;;5009737;28;20447;-73
2022/08/09 11:57:56;;;;;;;4.23;2.47;;;;;;;;;;4984040;28;20459;-72
2022/08/09 12:00:22;;;;;;;2.53;1.90;;;;;;;;;;4995384;28;20465;-73
2022/08/09 12:02:48;;;;;;;2.53;2.03;;;;;;;;;;4951318;28;20447;-74
2022/08/09 12:05:14;;;;;;;2.53;2.30;;;;;;;;;;5005787;28;20443;-73
2022/08/09 12:07:40;;;;;;;3.30;2.37;;;;;;;;;;4985676;28;20509;-73
2022/08/09 12:10:07;;;;;;;3.03;2.73;;;;;;;;;;5008454;28;20470;-73
2022/08/09 12:12:46;;;;;;;4.00;2.80;;;;;;;;;;5004058;28;20424;-71
2022/08/09 12:15:38;;;;;;;3.30;2.47;;;;;;;;;;4975425;28;21321;-74
2022/08/09 12:18:05;;;;;;;2.93;2.40;;;;;;;;;;4999758;28;20433;-73
2022/08/09 12:20:35;;;;;;;4.10;2.30;;;;;;;;;;4985453;28;21845;-75
2022/08/09 12:23:05;;;;;;;2.37;2.17;;;;;;;;;;4988809;28;20436;-73
2022/08/09 12:25:36;;;;;;;7.20;3.73;;;;;;;;;;4973444;28;21085;-74
2022/08/09 12:28:09;;;;;;;9.83;2.77;;;;;;;;;;4988996;28;21079;-74
2022/08/09 12:30:35;;;;;;;2.93;2.23;;;;;;;;;;4983202;28;20692;-73
2022/08/09 12:33:01;;;;;;;3.53;2.27;;;;;;;;;;5004718;28;20436;-73
2022/08/09 12:35:29;;;;;;;3.33;2.27;;;;;;;;;;4947973;28;20448;-73
2022/08/09 12:37:55;;;;;;;3.63;2.27;;;;;;;;;;4974350;28;20509;-73
2022/08/09 12:40:23;;;;;;;2.93;2.30;;;;;;;;;;4992536;28;20946;-73
2022/08/09 12:42:49;;;;;;;4.00;2.00;;;;;;;;;;4982589;28;20518;-73
2022/08/09 12:45:15;;;;;;;3.13;2.47;;;;;;;;;;5006577;28;20527;-73
2022/08/09 12:47:41;;;;;;;2.80;2.23;;;;;;;;;;4982608;28;20448;-73
2022/08/09 12:50:16;;;;;;;4.43;2.67;;;;;;;;;;5010391;28;20184;-73
2022/08/09 12:52:42;;;;;;;12.77;2.80;;;;;;;;;;4970182;28;20451;-74
2022/08/09 12:55:09;;;;;;;2.70;2.50;;;;;;;;;;4975729;28;20480;-74
2022/08/09 12:57:41;;;;;;;2.40;2.20;;;;;;;;;;4979001;28;20441;-75
2022/08/09 13:00:16;;;;;;;2.77;2.00;;;;;;;;;;4989987;28;20444;-74
2022/08/09 13:02:49;;;;;;;2.83;1.90;;;;;;;;;;4996847;28;20464;-74
2022/08/09 13:05:16;;;;;;;2.80;2.40;;;;;;;;;;4992074;28;20939;-74
2022/08/09 13:07:42;;;;;;;3.93;2.10;;;;;;;;;;4972741;28;20444;-74
2022/08/09 13:10:08;;;;;;;3.30;2.17;;;;;;;;;;4996309;28;20809;-75
2022/08/09 13:12:46;;;;;;;2.57;2.00;;;;;;;;;;4978056;28;20942;-73
2022/08/09 13:15:12;;;;;;;6.43;3.17;;;;;;;;;;5006197;28;20386;-73
2022/08/09 13:17:38;;;;;;;2.23;2.00;;;;;;;;;;4982992;28;20809;-74
2022/08/09 13:20:07;;;;;;;3.17;2.00;;;;;;;;;;5008627;28;20424;-74
2022/08/09 13:22:33;;;;;;;2.20;1.90;;;;;;;;;;4990554;28;20192;-74
2022/08/09 13:25:00;;;;;;;6.30;2.20;;;;;;;;;;4985448;28;20447;-74
2022/08/09 13:27:26;;;;;;;2.83;2.07;;;;;;;;;;4982664;28;20665;-74
2022/08/09 13:29:56;;;;;;;2.70;2.50;;;;;;;;;;4972152;28;20451;-74
2022/08/09 13:32:22;;;;;;;2.87;2.50;;;;;;;;;;4996047;28;20436;-74
2022/08/09 13:34:48;;;;;;;3.07;2.00;;;;;;;;;;4994913;28;20456;-74
2022/08/09 13:37:14;;;;;;;2.57;1.80;;;;;;;;;;4995559;28;20435;-74
2022/08/09 13:39:47;;;;;;;2.30;2.10;;;;;;;;;;4988158;28;20475;-75
2022/08/09 13:42:16;;;;;;;2.77;1.90;;;;;;;;;;4993114;28;20483;-75
2022/08/09 13:44:42;;;;;;;2.57;2.37;;;;;;;;;;5004286;28;20484;-75
2022/08/09 13:47:11;;;;;;;11.07;2.50;;;;;;;;;;4951532;28;20451;-74
2022/08/09 13:49:38;;;;;;;2.23;2.03;;;;;;;;;;4965145;28;20433;-75
2022/08/09 13:52:04;;;;;;;2.53;2.23;;;;;;;;;;4991257;28;20462;-74
2022/08/09 13:54:30;;;;;;;3.33;1.90;;;;;;;;;;5003525;28;21123;-74
2022/08/09 13:56:57;;;;;;;2.67;2.10;;;;;;;;;;4983231;28;20586;-74
2022/08/09 13:59:23;;;;;;;3.20;2.07;;;;;;;;;;4990030;28;20918;-74
2022/08/09 14:01:49;;;;;;;2.60;1.83;;;;;;;;;;4969122;28;21105;-74
2022/08/09 14:04:16;;;;;;;2.87;2.27;;;;;;;;;;5002423;28;20444;-74
2022/08/09 14:06:45;;;;;;;2.37;1.83;;;;;;;;;;4981880;28;20435;-74
2022/08/09 14:09:11;;;;;;;2.40;2.00;;;;;;;;;;4983203;28;20444;-75
2022/08/09 14:11:37;;;;;;;2.00;1.70;;;;;;;;;;4967427;28;21037;-73
2022/08/09 14:14:06;;;;;;;3.77;2.03;;;;;;;;;;4989700;28;20478;-74
2022/08/09 14:16:32;;;;;;;2.70;2.13;;;;;;;;;;4994864;28;20450;-75
2022/08/09 14:18:58;;;;;;;2.50;1.90;;;;;;;;;;5009346;28;20456;-74
2022/08/09 14:21:25;;;;;;;3.07;2.10;;;;;;;;;;4973636;28;20452;-74
2022/08/09 14:23:52;;;;;;;2.30;2.10;;;;;;;;;;4997678;28;20440;-73
2022/08/09 14:26:19;;;;;;;2.80;1.90;;;;;;;;;;4985696;28;20454;-73
2022/08/09 14:28:45;;;;;;;3.20;2.37;;;;;;;;;;5006704;28;21788;-74
2022/08/09 14:31:11;;;;;;;2.47;2.27;;;;;;;;;;4974856;28;20442;-74
2022/08/09 14:33:38;;;;;;;2.37;1.93;;;;;;;;;;4996752;28;21199;-73
2022/08/09 14:36:09;;;;;;;2.40;1.77;;;;;;;;;;4984016;28;20424;-74
2022/08/09 14:38:35;;;;;;;2.63;2.30;;;;;;;;;;4991565;28;20974;-73
2022/08/09 14:41:19;;;;;;;3.10;2.70;;;;;;;;;;4976210;28;20464;-74
2022/08/09 14:43:47;;;;;;;2.43;2.23;;;;;;;;;;4995850;28;20428;-74
2022/08/09 14:46:13;;;;;;;2.30;1.90;;;;;;;;;;5001215;28;20428;-74
2022/08/09 14:48:39;;;;;;;3.03;2.70;;;;;;;;;;4995626;28;20467;-75
2022/08/09 14:51:06;;;;;;;2.87;2.27;;;;;;;;;;4985128;28;20515;-73
2022/08/09 14:53:33;;;;;;;3.27;2.13;;;;;;;;;;4979737;28;22132;-73
2022/08/09 14:56:01;;;;;;;4.90;2.50;;;;;;;;;;4982190;28;20456;-73
2022/08/09 14:58:30;;;;;;;2.50;2.20;;;;;;;;;;4976578;28;20444;-73
2022/08/09 15:00:57;;;;;;;2.23;2.00;;;;;;;;;;4999775;28;20503;-74
2022/08/09 15:03:24;;;;;;;3.10;2.10;;;;;;;;;;4986884;28;20444;-73
2022/08/09 15:05:51;;;;;;;2.20;1.77;;;;;;;;;;4996210;28;20470;-74
2022/08/09 15:08:18;;;;;;;2.00;1.70;;;;;;;;;;4925074;28;23531;-73
2022/08/09 15:10:44;;;;;;;2.57;1.80;;;;;;;;;;4996427;28;20887;-73
2022/08/09 15:13:12;;;;;;;2.53;2.10;;;;;;;;;;4970545;28;20463;-73
2022/08/09 15:15:38;;;;;;;5.63;2.20;;;;;;;;;;4999396;28;20444;-73
2022/08/09 15:18:05;;;;;;;4.53;2.67;;;;;;;;;;4977427;28;20448;-73